sensor_id;sensor_type;location;lat;lon;timestamp;temperature;humidity
23685;DHT22;12020;51.384;6.908;2024-03-02T00:00:14;8.90;99.90
23685;DHT22;12020;51.384;6.908;2024-03-02T00:02:44;8.80;99.90
23685;DHT22;12020;51.384;6.908;2024-03-02T00:05:21;8.80;99.90
23685;DHT22;12020;51.384;6.908;2024-03-02T00:08:00;8.80;99.90
23685;DHT22;12020;51.384;6.908;2024-03-02T00:10:37;8.80;99.90
23685;DHT22;12020;51.384;6.908;2024-03-02T00:13:07;8.80;99.90
23685;DHT22;12020;51.384;6.908;2024-03-02T00:18:03;8.90;99.90
23685;DHT22;12020;51.384;6.908;2024-03-02T00:20:30;8.90;99.90
23685;DHT22;12020;51.384;6.908;2024-03-02T00:23:03;8.90;99.90
23685;DHT22;12020;51.384;6.908;2024-03-02T00:25:51;9.00;99.90
23685;DHT22;12020;51.384;6.908;2024-03-02T00:28:34;9.00;99.90
23685;DHT22;12020;51.384;6.908;2024-03-02T00:31:12;8.90;99.90
23685;DHT22;12020;51.384;6.908;2024-03-02T00:33:45;8.90;99.90
23685;DHT22;12020;51.384;6.908;2024-03-02T00:36:16;9.00;99.90
23685;DHT22;12020;51.384;6.908;2024-03-02T00:38:59;9.00;99.90
23685;DHT22;12020;51.384;6.908;2024-03-02T00:41:29;9.00;99.90
23685;DHT22;12020;51.384;6.908;2024-03-02T00:44:06;9.10;99.90
23685;DHT22;12020;51.384;6.908;2024-03-02T00:46:36;9.10;99.90
23685;DHT22;12020;51.384;6.908;2024-03-02T00:51:39;9.20;99.90
23685;DHT22;12020;51.384;6.908;2024-03-02T00:54:07;9.20;99.90
23685;DHT22;12020;51.384;6.908;2024-03-02T00:56:36;9.20;99.90
23685;DHT22;12020;51.384;6.908;2024-03-02T00:59:02;9.20;99.90
23685;DHT22;12020;51.384;6.908;2024-03-02T01:01:29;9.30;99.90
23685;DHT22;12020;51.384;6.908;2024-03-02T01:04:03;9.20;99.90
23685;DHT22;12020;51.384;6.908;2024-03-02T01:06:33;9.30;99.90
23685;DHT22;12020;51.384;6.908;2024-03-02T01:09:09;9.30;99.90
23685;DHT22;12020;51.384;6.908;2024-03-02T01:11:35;9.30;99.90
23685;DHT22;12020;51.384;6.908;2024-03-02T01:14:01;9.30;99.90
23685;DHT22;12020;51.384;6.908;2024-03-02T01:16:29;9.30;99.90
23685;DHT22;12020;51.384;6.908;2024-03-02T01:18:56;9.30;99.90
23685;DHT22;12020;51.384;6.908;2024-03-02T01:21:28;9.30;99.90
23685;DHT22;12020;51.384;6.908;2024-03-02T01:23:57;9.40;99.90
23685;DHT22;12020;51.384;6.908;2024-03-02T01:26:24;9.40;99.90
23685;DHT22;12020;51.384;6.908;2024-03-02T01:28:52;9.40;99.90
23685;DHT22;12020;51.384;6.908;2024-03-02T01:31:21;9.40;99.90
23685;DHT22;12020;51.384;6.908;2024-03-02T01:33:48;9.40;99.90
23685;DHT22;12020;51.384;6.908;2024-03-02T01:36:14;9.40;99.90
23685;DHT22;12020;51.384;6.908;2024-03-02T01:38:45;9.40;99.90
23685;DHT22;12020;51.384;6.908;2024-03-02T01:41:12;9.30;99.90
23685;DHT22;12020;51.384;6.908;2024-03-02T01:43:45;9.40;99.90
23685;DHT22;12020;51.384;6.908;2024-03-02T01:46:15;9.40;99.90
23685;DHT22;12020;51.384;6.908;2024-03-02T01:48:48;9.30;99.90
23685;DHT22;12020;51.384;6.908;2024-03-02T01:51:16;9.30;99.90
23685;DHT22;12020;51.384;6.908;2024-03-02T01:53:46;9.30;99.90
23685;DHT22;12020;51.384;6.908;2024-03-02T01:56:12;9.30;99.90
23685;DHT22;12020;51.384;6.908;2024-03-02T01:58:42;9.30;99.90
23685;DHT22;12020;51.384;6.908;2024-03-02T02:01:09;9.30;99.90
23685;DHT22;12020;51.384;6.908;2024-03-02T02:03:41;9.30;99.90
23685;DHT22;12020;51.384;6.908;2024-03-02T02:06:08;9.30;99.90
23685;DHT22;12020;51.384;6.908;2024-03-02T02:08:45;9.30;99.90
23685;DHT22;12020;51.384;6.908;2024-03-02T02:11:17;9.30;99.90
23685;DHT22;12020;51.384;6.908;2024-03-02T02:13:43;9.30;99.90
23685;DHT22;12020;51.384;6.908;2024-03-02T02:16:09;9.30;99.90
23685;DHT22;12020;51.384;6.908;2024-03-02T02:18:42;9.30;99.90
23685;DHT22;12020;51.384;6.908;2024-03-02T02:21:17;9.30;99.90
23685;DHT22;12020;51.384;6.908;2024-03-02T02:23:44;9.30;99.90
23685;DHT22;12020;51.384;6.908;2024-03-02T02:26:26;9.30;99.90
23685;DHT22;12020;51.384;6.908;2024-03-02T02:28:53;9.30;99.90
23685;DHT22;12020;51.384;6.908;2024-03-02T02:31:18;9.40;99.90
23685;DHT22;12020;51.384;6.908;2024-03-02T02:33:48;9.40;99.90
23685;DHT22;12020;51.384;6.908;2024-03-02T02:36:16;9.40;99.90
23685;DHT22;12020;51.384;6.908;2024-03-02T02:38:49;9.40;99.90
23685;DHT22;12020;51.384;6.908;2024-03-02T02:41:16;9.40;99.90
23685;DHT22;12020;51.384;6.908;2024-03-02T02:43:46;9.40;99.90
23685;DHT22;12020;51.384;6.908;2024-03-02T02:46:22;9.40;99.90
23685;DHT22;12020;51.384;6.908;2024-03-02T02:48:48;9.40;99.90
23685;DHT22;12020;51.384;6.908;2024-03-02T02:51:14;9.40;99.90
23685;DHT22;12020;51.384;6.908;2024-03-02T02:53:44;9.50;99.90
23685;DHT22;12020;51.384;6.908;2024-03-02T02:56:10;9.40;99.90
23685;DHT22;12020;51.384;6.908;2024-03-02T02:58:45;9.50;99.90
23685;DHT22;12020;51.384;6.908;2024-03-02T03:01:12;9.50;99.90
23685;DHT22;12020;51.384;6.908;2024-03-02T03:03:43;9.50;99.90
23685;DHT22;12020;51.384;6.908;2024-03-02T03:06:19;9.50;99.90
23685;DHT22;12020;51.384;6.908;2024-03-02T03:08:50;9.50;99.90
23685;DHT22;12020;51.384;6.908;2024-03-02T03:11:16;9.50;99.90
23685;DHT22;12020;51.384;6.908;2024-03-02T03:13:43;9.50;99.90
23685;DHT22;12020;51.384;6.908;2024-03-02T03:16:15;9.50;99.90
23685;DHT22;12020;51.384;6.908;2024-03-02T03:18:42;9.50;99.90
23685;DHT22;12020;51.384;6.908;2024-03-02T03:21:09;9.50;99.90
23685;DHT22;12020;51.384;6.908;2024-03-02T03:23:35;9.50;99.90
23685;DHT22;12020;51.384;6.908;2024-03-02T03:26:06;9.50;99.90
23685;DHT22;12020;51.384;6.908;2024-03-02T03:28:37;9.50;99.90
23685;DHT22;12020;51.384;6.908;2024-03-02T03:31:07;9.50;99.90
23685;DHT22;12020;51.384;6.908;2024-03-02T03:33:35;9.50;99.90
23685;DHT22;12020;51.384;6.908;2024-03-02T03:36:01;9.40;99.90
23685;DHT22;12020;51.384;6.908;2024-03-02T03:38:30;9.40;99.90
23685;DHT22;12020;51.384;6.908;2024-03-02T03:41:04;9.50;99.90
23685;DHT22;12020;51.384;6.908;2024-03-02T03:43:34;9.40;99.90
23685;DHT22;12020;51.384;6.908;2024-03-02T03:46:04;9.40;99.90
23685;DHT22;12020;51.384;6.908;2024-03-02T03:48:36;9.50;99.90
23685;DHT22;12020;51.384;6.908;2024-03-02T03:51:09;9.50;99.90
23685;DHT22;12020;51.384;6.908;2024-03-02T03:53:36;9.50;99.90
23685;DHT22;12020;51.384;6.908;2024-03-02T03:56:19;9.50;99.90
23685;DHT22;12020;51.384;6.908;2024-03-02T03:58:56;9.40;99.90
23685;DHT22;12020;51.384;6.908;2024-03-02T04:01:31;9.50;99.90
23685;DHT22;12020;51.384;6.908;2024-03-02T04:04:03;9.40;99.90
23685;DHT22;12020;51.384;6.908;2024-03-02T04:06:47;9.40;99.90
23685;DHT22;12020;51.384;6.908;2024-03-02T04:09:20;9.40;99.90
23685;DHT22;12020;51.384;6.908;2024-03-02T04:11:47;9.40;99.90
23685;DHT22;12020;51.384;6.908;2024-03-02T04:14:19;9.40;99.90
23685;DHT22;12020;51.384;6.908;2024-03-02T04:16:51;9.30;99.90
23685;DHT22;12020;51.384;6.908;2024-03-02T04:19:17;9.20;99.90
23685;DHT22;12020;51.384;6.908;2024-03-02T04:21:43;9.20;99.90
23685;DHT22;12020;51.384;6.908;2024-03-02T04:24:09;9.20;99.90
23685;DHT22;12020;51.384;6.908;2024-03-02T04:26:35;9.20;99.90
23685;DHT22;12020;51.384;6.908;2024-03-02T04:29:01;9.10;99.90
23685;DHT22;12020;51.384;6.908;2024-03-02T04:31:40;9.10;99.90
23685;DHT22;12020;51.384;6.908;2024-03-02T04:34:06;9.00;99.90
23685;DHT22;12020;51.384;6.908;2024-03-02T04:36:34;9.00;99.90
23685;DHT22;12020;51.384;6.908;2024-03-02T04:39:02;9.00;99.90
23685;DHT22;12020;51.384;6.908;2024-03-02T04:41:39;8.90;99.90
23685;DHT22;12020;51.384;6.908;2024-03-02T04:44:05;8.90;99.90
23685;DHT22;12020;51.384;6.908;2024-03-02T04:46:34;8.90;99.90
23685;DHT22;12020;51.384;6.908;2024-03-02T04:49:03;8.90;99.90
23685;DHT22;12020;51.384;6.908;2024-03-02T04:51:31;8.80;99.90
23685;DHT22;12020;51.384;6.908;2024-03-02T04:54:06;8.80;99.90
23685;DHT22;12020;51.384;6.908;2024-03-02T04:56:41;8.80;99.90
23685;DHT22;12020;51.384;6.908;2024-03-02T04:59:22;8.80;99.90
23685;DHT22;12020;51.384;6.908;2024-03-02T05:01:56;8.80;99.90
23685;DHT22;12020;51.384;6.908;2024-03-02T05:04:23;8.80;99.90
23685;DHT22;12020;51.384;6.908;2024-03-02T05:06:49;8.80;99.90
23685;DHT22;12020;51.384;6.908;2024-03-02T05:09:19;8.80;99.90
23685;DHT22;12020;51.384;6.908;2024-03-02T05:11:50;8.80;99.90
23685;DHT22;12020;51.384;6.908;2024-03-02T05:14:36;8.70;99.90
23685;DHT22;12020;51.384;6.908;2024-03-02T05:17:03;8.70;99.90
23685;DHT22;12020;51.384;6.908;2024-03-02T05:19:30;8.70;99.90
23685;DHT22;12020;51.384;6.908;2024-03-02T05:21:57;8.60;99.90
23685;DHT22;12020;51.384;6.908;2024-03-02T05:24:27;8.60;99.90
23685;DHT22;12020;51.384;6.908;2024-03-02T05:27:00;8.60;99.90
23685;DHT22;12020;51.384;6.908;2024-03-02T05:29:33;8.60;99.90
23685;DHT22;12020;51.384;6.908;2024-03-02T05:32:09;8.50;99.90
23685;DHT22;12020;51.384;6.908;2024-03-02T05:34:35;8.50;99.90
23685;DHT22;12020;51.384;6.908;2024-03-02T05:37:05;8.50;99.90
23685;DHT22;12020;51.384;6.908;2024-03-02T05:39:37;8.50;99.90
23685;DHT22;12020;51.384;6.908;2024-03-02T05:42:04;8.40;99.90
23685;DHT22;12020;51.384;6.908;2024-03-02T05:44:35;8.40;99.90
23685;DHT22;12020;51.384;6.908;2024-03-02T05:47:02;8.40;99.90
23685;DHT22;12020;51.384;6.908;2024-03-02T05:49:31;8.40;99.90
23685;DHT22;12020;51.384;6.908;2024-03-02T05:51:58;8.30;99.90
23685;DHT22;12020;51.384;6.908;2024-03-02T05:54:30;8.30;99.90
23685;DHT22;12020;51.384;6.908;2024-03-02T05:57:02;8.30;99.90
23685;DHT22;12020;51.384;6.908;2024-03-02T05:59:46;8.20;99.90
23685;DHT22;12020;51.384;6.908;2024-03-02T06:02:22;8.20;99.90
23685;DHT22;12020;51.384;6.908;2024-03-02T06:04:53;8.10;99.90
23685;DHT22;12020;51.384;6.908;2024-03-02T06:07:20;8.10;99.90
23685;DHT22;12020;51.384;6.908;2024-03-02T06:09:59;8.10;99.90
23685;DHT22;12020;51.384;6.908;2024-03-02T06:12:25;8.10;99.90
23685;DHT22;12020;51.384;6.908;2024-03-02T06:14:52;8.10;99.90
23685;DHT22;12020;51.384;6.908;2024-03-02T06:17:26;8.10;99.90
23685;DHT22;12020;51.384;6.908;2024-03-02T06:20:01;8.10;99.90
23685;DHT22;12020;51.384;6.908;2024-03-02T06:22:33;8.00;99.90
23685;DHT22;12020;51.384;6.908;2024-03-02T06:25:00;8.00;99.90
23685;DHT22;12020;51.384;6.908;2024-03-02T06:27:28;8.00;99.90
23685;DHT22;12020;51.384;6.908;2024-03-02T06:29:55;8.10;99.90
23685;DHT22;12020;51.384;6.908;2024-03-02T06:32:20;8.00;99.90
23685;DHT22;12020;51.384;6.908;2024-03-02T06:34:54;8.00;99.90
23685;DHT22;12020;51.384;6.908;2024-03-02T06:37:22;8.00;99.90
23685;DHT22;12020;51.384;6.908;2024-03-02T06:39:49;8.00;99.90
23685;DHT22;12020;51.384;6.908;2024-03-02T06:42:14;8.00;99.90
23685;DHT22;12020;51.384;6.908;2024-03-02T06:44:40;8.00;99.90
23685;DHT22;12020;51.384;6.908;2024-03-02T06:47:06;8.00;99.90
23685;DHT22;12020;51.384;6.908;2024-03-02T06:49:31;8.20;99.90
23685;DHT22;12020;51.384;6.908;2024-03-02T06:51:57;8.40;99.90
23685;DHT22;12020;51.384;6.908;2024-03-02T06:54:22;8.30;99.90
23685;DHT22;12020;51.384;6.908;2024-03-02T06:56:48;8.30;99.90
23685;DHT22;12020;51.384;6.908;2024-03-02T06:59:14;8.20;99.90
23685;DHT22;12020;51.384;6.908;2024-03-02T07:01:39;8.10;99.90
23685;DHT22;12020;51.384;6.908;2024-03-02T07:04:05;8.10;99.90
23685;DHT22;12020;51.384;6.908;2024-03-02T07:06:32;8.10;99.90
23685;DHT22;12020;51.384;6.908;2024-03-02T07:08:58;8.10;99.90
23685;DHT22;12020;51.384;6.908;2024-03-02T07:11:24;8.10;99.90
23685;DHT22;12020;51.384;6.908;2024-03-02T07:13:49;8.10;99.90
23685;DHT22;12020;51.384;6.908;2024-03-02T07:16:15;8.10;99.90
23685;DHT22;12020;51.384;6.908;2024-03-02T07:18:56;8.20;99.90
23685;DHT22;12020;51.384;6.908;2024-03-02T07:21:22;8.20;99.90
23685;DHT22;12020;51.384;6.908;2024-03-02T07:23:48;8.30;99.90
23685;DHT22;12020;51.384;6.908;2024-03-02T07:26:14;8.30;99.90
23685;DHT22;12020;51.384;6.908;2024-03-02T07:28:41;8.30;99.90
23685;DHT22;12020;51.384;6.908;2024-03-02T07:31:07;8.30;99.90
23685;DHT22;12020;51.384;6.908;2024-03-02T07:33:33;8.40;99.90
23685;DHT22;12020;51.384;6.908;2024-03-02T07:35:59;8.40;99.90
23685;DHT22;12020;51.384;6.908;2024-03-02T07:38:26;8.40;99.90
23685;DHT22;12020;51.384;6.908;2024-03-02T07:40:53;8.50;99.90
23685;DHT22;12020;51.384;6.908;2024-03-02T07:43:19;8.50;99.90
23685;DHT22;12020;51.384;6.908;2024-03-02T07:45:48;8.50;99.90
23685;DHT22;12020;51.384;6.908;2024-03-02T07:48:14;8.50;99.90
23685;DHT22;12020;51.384;6.908;2024-03-02T07:50:40;8.50;99.90
23685;DHT22;12020;51.384;6.908;2024-03-02T07:53:06;8.60;99.90
23685;DHT22;12020;51.384;6.908;2024-03-02T07:55:33;8.60;99.90
23685;DHT22;12020;51.384;6.908;2024-03-02T07:58:00;8.70;99.90
23685;DHT22;12020;51.384;6.908;2024-03-02T08:00:25;8.70;99.90
23685;DHT22;12020;51.384;6.908;2024-03-02T08:02:52;8.80;99.90
23685;DHT22;12020;51.384;6.908;2024-03-02T08:05:18;8.80;99.90
23685;DHT22;12020;51.384;6.908;2024-03-02T08:07:46;8.90;99.90
23685;DHT22;12020;51.384;6.908;2024-03-02T08:10:12;9.00;99.90
23685;DHT22;12020;51.384;6.908;2024-03-02T08:12:38;9.20;99.90
23685;DHT22;12020;51.384;6.908;2024-03-02T08:15:04;9.20;99.90
23685;DHT22;12020;51.384;6.908;2024-03-02T08:17:31;9.40;99.90
23685;DHT22;12020;51.384;6.908;2024-03-02T08:19:57;9.50;99.90
23685;DHT22;12020;51.384;6.908;2024-03-02T08:22:23;9.60;99.90
23685;DHT22;12020;51.384;6.908;2024-03-02T08:24:52;9.70;99.90
23685;DHT22;12020;51.384;6.908;2024-03-02T08:27:18;9.70;99.90
23685;DHT22;12020;51.384;6.908;2024-03-02T08:29:43;9.80;99.90
23685;DHT22;12020;51.384;6.908;2024-03-02T08:32:09;9.90;99.90
23685;DHT22;12020;51.384;6.908;2024-03-02T08:34:37;9.90;99.90
23685;DHT22;12020;51.384;6.908;2024-03-02T08:37:02;10.00;99.90
23685;DHT22;12020;51.384;6.908;2024-03-02T08:39:28;10.10;99.90
23685;DHT22;12020;51.384;6.908;2024-03-02T08:41:54;10.10;99.90
23685;DHT22;12020;51.384;6.908;2024-03-02T08:44:20;10.20;99.90
23685;DHT22;12020;51.384;6.908;2024-03-02T08:46:46;10.20;99.90
23685;DHT22;12020;51.384;6.908;2024-03-02T08:49:12;10.30;99.90
23685;DHT22;12020;51.384;6.908;2024-03-02T08:51:38;10.40;99.90
23685;DHT22;12020;51.384;6.908;2024-03-02T08:54:04;10.40;99.90
23685;DHT22;12020;51.384;6.908;2024-03-02T08:56:31;10.50;99.90
23685;DHT22;12020;51.384;6.908;2024-03-02T08:58:56;10.50;99.90
23685;DHT22;12020;51.384;6.908;2024-03-02T09:01:22;10.60;99.90
23685;DHT22;12020;51.384;6.908;2024-03-02T09:03:48;10.70;99.90
23685;DHT22;12020;51.384;6.908;2024-03-02T09:06:15;10.70;99.90
23685;DHT22;12020;51.384;6.908;2024-03-02T09:08:43;10.80;99.90
23685;DHT22;12020;51.384;6.908;2024-03-02T09:11:09;10.90;99.90
23685;DHT22;12020;51.384;6.908;2024-03-02T09:13:36;11.10;99.90
23685;DHT22;12020;51.384;6.908;2024-03-02T09:16:03;11.20;99.90
23685;DHT22;12020;51.384;6.908;2024-03-02T09:18:29;11.20;99.90
23685;DHT22;12020;51.384;6.908;2024-03-02T09:20:55;11.30;99.90
23685;DHT22;12020;51.384;6.908;2024-03-02T09:23:21;11.50;99.90
23685;DHT22;12020;51.384;6.908;2024-03-02T09:25:46;11.60;99.90
23685;DHT22;12020;51.384;6.908;2024-03-02T09:28:12;11.60;99.90
23685;DHT22;12020;51.384;6.908;2024-03-02T09:30:38;11.70;99.90
23685;DHT22;12020;51.384;6.908;2024-03-02T09:33:03;11.80;99.90
23685;DHT22;12020;51.384;6.908;2024-03-02T09:35:29;11.90;99.90
23685;DHT22;12020;51.384;6.908;2024-03-02T09:37:56;12.00;99.90
23685;DHT22;12020;51.384;6.908;2024-03-02T09:40:22;12.10;99.90
23685;DHT22;12020;51.384;6.908;2024-03-02T09:42:48;12.20;99.90
23685;DHT22;12020;51.384;6.908;2024-03-02T09:45:23;12.30;99.90
23685;DHT22;12020;51.384;6.908;2024-03-02T09:47:49;12.40;99.90
23685;DHT22;12020;51.384;6.908;2024-03-02T09:50:15;12.50;99.90
23685;DHT22;12020;51.384;6.908;2024-03-02T09:52:42;12.60;99.90
23685;DHT22;12020;51.384;6.908;2024-03-02T09:55:08;12.70;99.90
23685;DHT22;12020;51.384;6.908;2024-03-02T09:57:34;12.80;99.90
23685;DHT22;12020;51.384;6.908;2024-03-02T10:00:00;13.00;99.90
23685;DHT22;12020;51.384;6.908;2024-03-02T10:02:26;13.20;99.90
23685;DHT22;12020;51.384;6.908;2024-03-02T10:04:51;13.30;99.90
23685;DHT22;12020;51.384;6.908;2024-03-02T10:07:18;13.20;99.90
23685;DHT22;12020;51.384;6.908;2024-03-02T10:09:46;13.20;99.90
23685;DHT22;12020;51.384;6.908;2024-03-02T10:12:14;13.20;99.90
23685;DHT22;12020;51.384;6.908;2024-03-02T10:14:41;13.20;99.90
23685;DHT22;12020;51.384;6.908;2024-03-02T10:17:08;13.30;99.90
23685;DHT22;12020;51.384;6.908;2024-03-02T10:19:35;13.40;99.90
23685;DHT22;12020;51.384;6.908;2024-03-02T10:22:03;13.50;99.90
23685;DHT22;12020;51.384;6.908;2024-03-02T10:24:39;13.70;99.90
23685;DHT22;12020;51.384;6.908;2024-03-02T10:27:07;13.80;99.90
23685;DHT22;12020;51.384;6.908;2024-03-02T10:29:39;13.80;99.90
23685;DHT22;12020;51.384;6.908;2024-03-02T10:32:08;13.80;99.90
23685;DHT22;12020;51.384;6.908;2024-03-02T10:34:35;13.90;99.90
23685;DHT22;12020;51.384;6.908;2024-03-02T10:37:01;14.00;99.90
23685;DHT22;12020;51.384;6.908;2024-03-02T10:39:28;14.10;99.90
23685;DHT22;12020;51.384;6.908;2024-03-02T10:41:55;14.20;99.90
23685;DHT22;12020;51.384;6.908;2024-03-02T10:44:22;14.30;99.90
23685;DHT22;12020;51.384;6.908;2024-03-02T10:46:49;14.40;99.90
23685;DHT22;12020;51.384;6.908;2024-03-02T10:49:16;14.50;99.90
23685;DHT22;12020;51.384;6.908;2024-03-02T10:51:42;14.40;99.90
23685;DHT22;12020;51.384;6.908;2024-03-02T10:54:08;14.30;99.90
23685;DHT22;12020;51.384;6.908;2024-03-02T11:01:48;14.20;99.90
23685;DHT22;12020;51.384;6.908;2024-03-02T11:04:16;14.20;99.90
23685;DHT22;12020;51.384;6.908;2024-03-02T11:06:48;14.10;99.90
23685;DHT22;12020;51.384;6.908;2024-03-02T11:09:15;14.00;99.90
23685;DHT22;12020;51.384;6.908;2024-03-02T11:11:43;13.80;99.90
23685;DHT22;12020;51.384;6.908;2024-03-02T11:14:17;13.80;99.90
23685;DHT22;12020;51.384;6.908;2024-03-02T11:16:46;13.80;99.90
23685;DHT22;12020;51.384;6.908;2024-03-02T11:19:13;13.80;99.90
23685;DHT22;12020;51.384;6.908;2024-03-02T11:21:39;13.80;99.90
23685;DHT22;12020;51.384;6.908;2024-03-02T11:26:50;13.90;99.90
23685;DHT22;12020;51.384;6.908;2024-03-02T11:32:03;14.00;99.90
23685;DHT22;12020;51.384;6.908;2024-03-02T11:34:31;14.10;99.90
23685;DHT22;12020;51.384;6.908;2024-03-02T11:37:02;14.10;99.90
23685;DHT22;12020;51.384;6.908;2024-03-02T11:39:28;14.00;99.90
23685;DHT22;12020;51.384;6.908;2024-03-02T11:41:58;14.10;99.90
23685;DHT22;12020;51.384;6.908;2024-03-02T11:44:26;14.20;99.90
23685;DHT22;12020;51.384;6.908;2024-03-02T11:46:57;14.30;99.90
23685;DHT22;12020;51.384;6.908;2024-03-02T11:49:41;14.30;99.90
23685;DHT22;12020;51.384;6.908;2024-03-02T11:52:08;14.20;99.90
23685;DHT22;12020;51.384;6.908;2024-03-02T11:54:38;14.20;99.90
23685;DHT22;12020;51.384;6.908;2024-03-02T11:57:13;14.20;99.90
23685;DHT22;12020;51.384;6.908;2024-03-02T11:59:40;14.20;99.90
23685;DHT22;12020;51.384;6.908;2024-03-02T12:02:06;14.10;99.90
23685;DHT22;12020;51.384;6.908;2024-03-02T12:04:33;14.20;99.90
23685;DHT22;12020;51.384;6.908;2024-03-02T12:07:01;14.30;99.90
23685;DHT22;12020;51.384;6.908;2024-03-02T12:09:28;14.40;99.90
23685;DHT22;12020;51.384;6.908;2024-03-02T12:12:05;14.60;99.90
23685;DHT22;12020;51.384;6.908;2024-03-02T12:14:36;14.60;99.90
23685;DHT22;12020;51.384;6.908;2024-03-02T12:17:15;14.60;99.90
23685;DHT22;12020;51.384;6.908;2024-03-02T12:19:41;14.50;99.90
23685;DHT22;12020;51.384;6.908;2024-03-02T12:22:08;14.40;99.90
23685;DHT22;12020;51.384;6.908;2024-03-02T12:24:36;14.30;99.90
23685;DHT22;12020;51.384;6.908;2024-03-02T12:27:09;14.30;99.90
23685;DHT22;12020;51.384;6.908;2024-03-02T12:29:36;14.20;99.90
23685;DHT22;12020;51.384;6.908;2024-03-02T12:32:02;14.10;99.90
23685;DHT22;12020;51.384;6.908;2024-03-02T12:34:34;13.90;99.90
23685;DHT22;12020;51.384;6.908;2024-03-02T12:37:04;13.90;99.90
23685;DHT22;12020;51.384;6.908;2024-03-02T12:39:31;13.80;99.90
23685;DHT22;12020;51.384;6.908;2024-03-02T12:41:58;13.80;99.90
23685;DHT22;12020;51.384;6.908;2024-03-02T12:44:28;13.80;99.90
23685;DHT22;12020;51.384;6.908;2024-03-02T12:46:53;13.70;99.90
23685;DHT22;12020;51.384;6.908;2024-03-02T12:49:21;13.60;99.90
23685;DHT22;12020;51.384;6.908;2024-03-02T12:51:48;13.60;99.90
23685;DHT22;12020;51.384;6.908;2024-03-02T12:54:17;13.60;99.90
23685;DHT22;12020;51.384;6.908;2024-03-02T12:56:45;13.60;99.90
23685;DHT22;12020;51.384;6.908;2024-03-02T13:01:55;13.60;99.90
23685;DHT22;12020;51.384;6.908;2024-03-02T13:04:24;13.60;99.90
23685;DHT22;12020;51.384;6.908;2024-03-02T13:06:52;13.60;99.90
23685;DHT22;12020;51.384;6.908;2024-03-02T13:09:20;13.60;99.90
23685;DHT22;12020;51.384;6.908;2024-03-02T13:11:46;13.60;99.90
23685;DHT22;12020;51.384;6.908;2024-03-02T13:14:12;13.60;99.90
23685;DHT22;12020;51.384;6.908;2024-03-02T13:16:41;13.60;99.90
23685;DHT22;12020;51.384;6.908;2024-03-02T13:19:14;13.50;99.90
23685;DHT22;12020;51.384;6.908;2024-03-02T13:21:42;13.50;99.90
23685;DHT22;12020;51.384;6.908;2024-03-02T13:24:09;13.50;99.90
23685;DHT22;12020;51.384;6.908;2024-03-02T13:26:37;13.60;99.90
23685;DHT22;12020;51.384;6.908;2024-03-02T13:29:04;13.60;99.90
23685;DHT22;12020;51.384;6.908;2024-03-02T13:31:30;13.60;99.90
23685;DHT22;12020;51.384;6.908;2024-03-02T13:33:57;13.60;99.90
23685;DHT22;12020;51.384;6.908;2024-03-02T13:36:23;13.60;99.90
23685;DHT22;12020;51.384;6.908;2024-03-02T13:38:52;13.50;99.90
23685;DHT22;12020;51.384;6.908;2024-03-02T13:41:20;13.50;99.90
23685;DHT22;12020;51.384;6.908;2024-03-02T13:43:48;13.40;99.90
23685;DHT22;12020;51.384;6.908;2024-03-02T13:46:16;13.40;99.90
23685;DHT22;12020;51.384;6.908;2024-03-02T13:48:42;13.50;99.90
23685;DHT22;12020;51.384;6.908;2024-03-02T13:51:07;13.70;99.90
23685;DHT22;12020;51.384;6.908;2024-03-02T13:53:34;13.70;99.90
23685;DHT22;12020;51.384;6.908;2024-03-02T13:56:00;13.70;99.90
23685;DHT22;12020;51.384;6.908;2024-03-02T13:58:25;13.60;99.90
23685;DHT22;12020;51.384;6.908;2024-03-02T14:00:52;13.70;99.90
23685;DHT22;12020;51.384;6.908;2024-03-02T14:03:18;13.70;99.90
23685;DHT22;12020;51.384;6.908;2024-03-02T14:05:43;13.80;99.90
23685;DHT22;12020;51.384;6.908;2024-03-02T14:08:11;13.80;99.90
23685;DHT22;12020;51.384;6.908;2024-03-02T14:10:37;13.80;99.90
23685;DHT22;12020;51.384;6.908;2024-03-02T14:13:02;13.80;99.90
23685;DHT22;12020;51.384;6.908;2024-03-02T14:15:29;13.80;99.90
23685;DHT22;12020;51.384;6.908;2024-03-02T14:17:56;13.80;99.90
23685;DHT22;12020;51.384;6.908;2024-03-02T14:20:22;13.80;99.90
23685;DHT22;12020;51.384;6.908;2024-03-02T14:22:49;13.80;99.90
23685;DHT22;12020;51.384;6.908;2024-03-02T14:25:15;13.80;99.90
23685;DHT22;12020;51.384;6.908;2024-03-02T14:27:41;13.90;99.90
23685;DHT22;12020;51.384;6.908;2024-03-02T14:30:07;13.90;99.90
23685;DHT22;12020;51.384;6.908;2024-03-02T14:32:33;13.90;99.90
23685;DHT22;12020;51.384;6.908;2024-03-02T14:34:59;14.00;99.90
23685;DHT22;12020;51.384;6.908;2024-03-02T14:37:24;13.90;99.90
23685;DHT22;12020;51.384;6.908;2024-03-02T14:39:50;13.90;99.90
23685;DHT22;12020;51.384;6.908;2024-03-02T14:42:16;14.00;99.90
23685;DHT22;12020;51.384;6.908;2024-03-02T14:44:41;14.00;99.90
23685;DHT22;12020;51.384;6.908;2024-03-02T14:47:07;13.90;99.90
23685;DHT22;12020;51.384;6.908;2024-03-02T14:49:40;13.90;99.90
23685;DHT22;12020;51.384;6.908;2024-03-02T14:52:15;14.00;99.90
23685;DHT22;12020;51.384;6.908;2024-03-02T14:54:43;14.10;99.90
23685;DHT22;12020;51.384;6.908;2024-03-02T14:57:09;14.10;99.90
23685;DHT22;12020;51.384;6.908;2024-03-02T14:59:44;14.00;99.90
23685;DHT22;12020;51.384;6.908;2024-03-02T15:02:12;14.00;99.90
23685;DHT22;12020;51.384;6.908;2024-03-02T15:04:39;14.00;99.90
23685;DHT22;12020;51.384;6.908;2024-03-02T15:07:07;13.90;99.90
23685;DHT22;12020;51.384;6.908;2024-03-02T15:09:36;13.90;99.90
23685;DHT22;12020;51.384;6.908;2024-03-02T15:12:02;13.90;99.90
23685;DHT22;12020;51.384;6.908;2024-03-02T15:14:29;14.00;99.90
23685;DHT22;12020;51.384;6.908;2024-03-02T15:16:56;14.00;99.90
23685;DHT22;12020;51.384;6.908;2024-03-02T15:19:26;14.00;99.90
23685;DHT22;12020;51.384;6.908;2024-03-02T15:21:55;14.00;99.90
23685;DHT22;12020;51.384;6.908;2024-03-02T15:24:32;14.00;99.90
23685;DHT22;12020;51.384;6.908;2024-03-02T15:26:59;14.10;99.90
23685;DHT22;12020;51.384;6.908;2024-03-02T15:29:26;14.10;99.90
23685;DHT22;12020;51.384;6.908;2024-03-02T15:31:55;14.00;99.90
23685;DHT22;12020;51.384;6.908;2024-03-02T15:34:21;14.00;99.90
23685;DHT22;12020;51.384;6.908;2024-03-02T15:36:49;14.00;99.90
23685;DHT22;12020;51.384;6.908;2024-03-02T15:39:20;14.00;99.90
23685;DHT22;12020;51.384;6.908;2024-03-02T15:41:49;13.90;99.90
23685;DHT22;12020;51.384;6.908;2024-03-02T15:44:15;13.90;99.90
23685;DHT22;12020;51.384;6.908;2024-03-02T15:46:41;13.90;99.90
23685;DHT22;12020;51.384;6.908;2024-03-02T15:49:07;13.90;99.90
23685;DHT22;12020;51.384;6.908;2024-03-02T15:51:34;13.90;99.90
23685;DHT22;12020;51.384;6.908;2024-03-02T15:54:02;13.90;99.90
23685;DHT22;12020;51.384;6.908;2024-03-02T15:56:32;13.90;99.90
23685;DHT22;12020;51.384;6.908;2024-03-02T15:58:58;13.90;99.90
23685;DHT22;12020;51.384;6.908;2024-03-02T16:01:30;13.90;99.90
23685;DHT22;12020;51.384;6.908;2024-03-02T16:04:16;13.90;99.90
23685;DHT22;12020;51.384;6.908;2024-03-02T16:06:43;13.90;99.90